»·PEaware :: CAX352 KBOI-KSLC

CAX352 :: KBOI-KSLC

FLIGHT INFORMATION

Flight Status: Arrived
Operator:
California Airlines (website)
More flights by this operator :: More flights under this callsign
Pilot: Dan K. (1691)
Aircraft: BOEING 737-800
(B738)
More flights by this aircraft type
Origin: KBOI Boise Air Terminal/Gowen
United States
Destination: KSLC Salt Lake City Intl
United States
More flights between these airports :: More routes between these airports
Route: BOI3 BOI ROARR BYI SKEES5
File this flight plan on PilotEdge
Remarks:
Altitude:
(Current/Filed)
37,000ft
Speed:
(Current/Filed)
455kts
Departed: 25-Mar-18 10:42 AM
Arrived: 25-Mar-18 11:36 AM
Distance/Time
Traveled:
251nm/0:54
Distance/Time
To Go:
Arrived

Flight Plot

Page will automatically refresh every two minutes.

Flight plan parsing failed; only flown route is shown


Map Options




Map Legend


Flown Route
Filed Route
Departure Airport
Arrival Airport
Navaid (VOR, NDB)
Fix

Horizontal Profiles

Position Reports

Time Latitude Longitude Heading Altitude Ground
Speed
25-Mar-18 10:19 43.566629 -116.243497 270 2879ft 0kts
25-Mar-18 10:20 43.566629 -116.243497 270 2879ft 0kts
25-Mar-18 10:21 43.566629 -116.243497 270 2879ft 0kts
25-Mar-18 10:22 43.566629 -116.243497 270 2879ft 0kts
25-Mar-18 10:23 43.566629 -116.243497 270 2879ft 0kts
25-Mar-18 10:24 43.566629 -116.243497 270 2879ft 0kts
25-Mar-18 10:25 43.566629 -116.243497 270 2879ft 0kts
25-Mar-18 10:26 43.566629 -116.243497 270 2879ft 0kts
25-Mar-18 10:27 43.566629 -116.243497 270 2879ft 0kts
25-Mar-18 10:28 43.566629 -116.243497 270 2879ft 0kts
25-Mar-18 10:29 43.566629 -116.243497 270 2879ft 0kts
25-Mar-18 10:30 43.566629 -116.243497 270 2879ft 0kts
25-Mar-18 10:31 43.566629 -116.243497 270 2879ft 0kts
25-Mar-18 10:32 43.566629 -116.243497 270 2879ft 0kts
25-Mar-18 10:33 43.566628 -116.243365 270 2879ft 2kts
25-Mar-18 10:34 43.566618 -116.242675 286 2879ft 2kts
25-Mar-18 10:35 43.566198 -116.242293 4 2879ft 0kts
25-Mar-18 10:36 43.566185 -116.242295 4 2879ft 0kts
25-Mar-18 10:37 43.566194 -116.242294 4 2879ft 0kts
25-Mar-18 10:38 43.568520 -116.242274 1 2879ft 11kts
25-Mar-18 10:39 43.568879 -116.242268 0 2879ft 0kts
25-Mar-18 10:40 43.569383 -116.242240 9 2879ft 9kts
25-Mar-18 10:41 43.562861 -116.221378 114 2899ft 173kts
25-Mar-18 10:42 43.541920 -116.159462 114 5316ft 203kts
25-Mar-18 10:43 43.513039 -116.074628 113 7387ft 276kts
25-Mar-18 10:44 43.482133 -115.976484 111 10666ft 289kts
25-Mar-18 10:45 43.449088 -115.869944 111 13572ft 315kts
25-Mar-18 10:46 43.413879 -115.757049 110 16012ft 337kts
25-Mar-18 10:47 43.376635 -115.638027 110 19006ft 352kts
25-Mar-18 10:48 43.336829 -115.511385 111 21713ft 374kts
25-Mar-18 10:49 43.294571 -115.377691 112 24254ft 394kts
25-Mar-18 10:50 43.238525 -115.251576 123 26566ft 411kts
25-Mar-18 10:51 43.177982 -115.124429 127 30102ft 385kts
25-Mar-18 10:52 43.119177 -115.001896 128 32112ft 390kts
25-Mar-18 10:53 43.059924 -114.877862 129 33967ft 393kts
25-Mar-18 10:54 43.000694 -114.753525 130 35746ft 390kts
25-Mar-18 10:55 42.942072 -114.630207 130 36999ft 392kts
25-Mar-18 10:56 42.884675 -114.509566 130 37012ft 424kts
25-Mar-18 10:57 42.819805 -114.372354 130 36997ft 434kts
25-Mar-18 10:58 42.759710 -114.244900 130 36990ft 431kts
25-Mar-18 10:59 42.695039 -114.107671 130 36988ft 432kts
25-Mar-18 11:00 42.630952 -113.971400 130 36983ft 432kts
25-Mar-18 11:01 42.566145 -113.837813 141 36969ft 421kts
25-Mar-18 11:02 42.482008 -113.729926 144 36984ft 417kts
25-Mar-18 11:03 42.398282 -113.619665 143 35268ft 420kts
25-Mar-18 11:04 42.315933 -113.510653 143 33310ft 418kts
25-Mar-18 11:05 42.232384 -113.400382 142 31369ft 428kts
25-Mar-18 11:06 42.156035 -113.299831 142 29599ft 433kts
25-Mar-18 11:07 42.070495 -113.187481 142 27614ft 439kts
25-Mar-18 11:08 41.982816 -113.072745 141 25615ft 445kts
25-Mar-18 11:09 41.895202 -112.958522 140 23652ft 452kts
25-Mar-18 11:10 41.856373 -112.908052 140 22809ft 456kts
25-Mar-18 11:11 41.767409 -112.792606 140 20825ft 435kts
25-Mar-18 11:12 41.684804 -112.685817 139 18848ft 412kts
25-Mar-18 11:13 41.604220 -112.582171 138 17000ft 398kts
25-Mar-18 11:14 41.525750 -112.482019 141 17000ft 400kts
25-Mar-18 11:15 41.434751 -112.405992 154 15183ft 386kts
25-Mar-18 11:16 41.346778 -112.345189 154 13307ft 373kts
25-Mar-18 11:17 41.269769 -112.291374 154 12992ft 366kts
25-Mar-18 11:18 41.181448 -112.226847 151 12487ft 369kts
25-Mar-18 11:19 41.097481 -112.162873 151 11523ft 358kts
25-Mar-18 11:20 41.011046 -112.129872 173 10978ft 310kts
25-Mar-18 11:21 40.932572 -112.114276 171 10996ft 284kts
25-Mar-18 11:22 40.869724 -112.105060 175 10319ft 291kts
25-Mar-18 11:23 40.794192 -112.095584 175 8859ft 274kts
25-Mar-18 11:24 40.724707 -112.071732 161 8002ft 261kts
25-Mar-18 11:25 40.660285 -112.040143 161 8000ft 266kts
25-Mar-18 11:26 40.597096 -112.009160 161 8002ft 266kts
25-Mar-18 11:27 40.529212 -111.975886 161 7989ft 256kts
25-Mar-18 11:28 40.511877 -111.917950 31 8051ft 212kts
25-Mar-18 11:29 40.557299 -111.939398 326 7980ft 209kts
25-Mar-18 11:30 40.610371 -111.953738 352 7490ft 189kts
25-Mar-18 11:31 40.658458 -111.959615 352 6584ft 166kts
25-Mar-18 11:32 40.703041 -111.964829 351 5675ft 160kts
25-Mar-18 11:33 40.744937 -111.969690 351 4853ft 150kts
25-Mar-18 11:34 40.784237 -111.974281 353 4235ft 108kts
25-Mar-18 11:35 40.801043 -111.976252 342 4234ft 30kts
25-Mar-18 11:36 40.801668 -111.977829 262 4235ft 0kts
25-Mar-18 11:37 40.800576 -111.979686 268 4235ft 9kts
25-Mar-18 11:38 40.801802 -111.982271 265 4235ft 11kts
25-Mar-18 11:39 40.801834 -111.986229 342 4235ft 7kts
25-Mar-18 11:40 40.802355 -111.986327 354 4235ft 0kts
25-Mar-18 11:41 40.802355 -111.986327 354 4235ft 0kts

Navigation Log

Ident Type
Flight plan parsing failed, navigation log unavailable